Time;durP1;ratioP1;P1;durP2;ratioP2;P2;SDS_P1;SDS_P2;PMS_P1;PMS_P2;Temp;Humidity;BMP_temperature;BMP_pressure;BME280_temperature;BME280_humidity;BME280_pressure;Samples;Min_cycle;Max_cycle;Signal;HPM_P1;HPM_P2
2022/07/13 00:00:55;;;;;;;1.43;1.33;;;16.00;99.90;;;;;;5036688;28;20473;-94
2022/07/13 00:03:22;;;;;;;1.40;1.30;;;16.00;99.90;;;;;;5036594;28;20516;-95
2022/07/13 00:05:49;;;;;;;1.53;1.43;;;16.00;99.90;;;;;;5039091;28;20433;-95
2022/07/13 00:08:16;;;;;;;1.87;1.67;;;16.00;99.90;;;;;;5039424;28;20517;-96
2022/07/13 00:10:43;;;;;;;1.73;1.63;;;15.90;99.90;;;;;;5047596;23;20500;-72
2022/07/13 00:13:11;;;;;;;1.70;1.50;;;15.90;99.90;;;;;;5028427;28;20892;-72
2022/07/13 00:15:38;;;;;;;1.53;1.43;;;15.90;99.90;;;;;;5032883;28;20484;-72
2022/07/13 00:18:04;;;;;;;1.77;1.40;;;15.80;99.90;;;;;;5032216;28;20463;-71
2022/07/13 00:20:33;;;;;;;2.07;1.87;;;15.80;99.90;;;;;;5032324;28;20459;-71
2022/07/13 00:23:00;;;;;;;1.67;1.57;;;15.80;99.90;;;;;;5031403;28;20482;-72
2022/07/13 00:25:26;;;;;;;1.90;1.73;;;15.70;99.90;;;;;;5032718;28;20846;-72
2022/07/13 00:27:53;;;;;;;1.87;1.77;;;15.80;99.90;;;;;;5032761;28;20490;-72
2022/07/13 00:30:21;;;;;;;1.90;1.70;;;15.80;99.90;;;;;;5032237;28;20995;-72
2022/07/13 00:32:48;;;;;;;2.70;1.47;;;15.70;99.90;;;;;;5032759;28;20471;-72
2022/07/13 00:35:15;;;;;;;2.67;1.80;;;15.60;99.90;;;;;;5032601;28;20523;-72
2022/07/13 00:37:43;;;;;;;2.20;1.67;;;15.70;99.90;;;;;;5032769;28;20567;-72
2022/07/13 00:40:10;;;;;;;1.93;1.60;;;15.60;99.90;;;;;;5032101;28;20452;-70
2022/07/13 00:42:37;;;;;;;5.00;1.87;;;15.60;99.90;;;;;;5032751;28;20460;-72
2022/07/13 00:45:05;;;;;;;1.90;1.70;;;15.60;99.90;;;;;;5032674;28;20483;-71
2022/07/13 00:47:34;;;;;;;2.13;1.90;;;15.60;99.90;;;;;;5032740;28;20967;-71
2022/07/13 00:50:01;;;;;;;1.93;1.80;;;15.60;99.90;;;;;;5031783;28;20484;-70
2022/07/13 00:52:30;;;;;;;2.30;1.77;;;15.50;99.90;;;;;;5032489;28;20464;-72
2022/07/13 00:54:57;;;;;;;2.60;1.83;;;15.50;99.90;;;;;;5032350;28;20480;-71
2022/07/13 00:57:26;;;;;;;2.33;1.40;;;15.50;99.90;;;;;;5032322;28;20460;-72
2022/07/13 00:59:53;;;;;;;1.60;1.50;;;15.50;99.90;;;;;;5031644;28;20850;-71
2022/07/13 01:02:20;;;;;;;2.23;1.70;;;15.40;99.90;;;;;;5032477;28;20460;-71
2022/07/13 01:04:48;;;;;;;1.60;1.50;;;15.40;99.90;;;;;;5031773;28;20486;-72
2022/07/13 01:07:15;;;;;;;1.87;1.50;;;15.40;99.90;;;;;;5032433;28;20464;-71
2022/07/13 01:09:42;;;;;;;1.80;1.70;;;15.40;99.90;;;;;;5031160;28;20540;-71
2022/07/13 01:12:09;;;;;;;1.60;1.50;;;15.40;99.90;;;;;;5032223;28;20471;-71
2022/07/13 01:14:37;;;;;;;1.50;1.40;;;15.30;99.90;;;;;;5031816;28;20518;-71
2022/07/13 01:17:05;;;;;;;1.73;1.63;;;15.30;99.90;;;;;;5032172;28;20460;-72
2022/07/13 01:19:34;;;;;;;2.00;1.70;;;15.30;99.90;;;;;;5031588;28;20464;-72
2022/07/13 01:22:03;;;;;;;2.13;1.80;;;15.20;99.90;;;;;;5030857;28;20548;-71
2022/07/13 01:24:33;;;;;;;1.53;1.43;;;15.20;99.90;;;;;;5032120;28;20484;-72
2022/07/13 01:27:01;;;;;;;1.30;1.20;;;15.20;99.90;;;;;;5031807;28;20914;-71
2022/07/13 01:29:28;;;;;;;1.50;1.40;;;15.10;99.90;;;;;;5031550;28;20514;-72
2022/07/13 01:32:00;;;;;;;1.70;1.60;;;15.10;99.90;;;;;;5030019;28;20532;-71
2022/07/13 01:34:27;;;;;;;1.53;1.40;;;15.10;99.90;;;;;;5031888;28;20480;-72
2022/07/13 01:36:54;;;;;;;2.57;1.60;;;15.00;99.90;;;;;;5031334;28;20473;-70
2022/07/13 01:39:21;;;;;;;1.67;1.57;;;15.00;99.90;;;;;;5031095;28;20471;-72
2022/07/13 01:41:49;;;;;;;1.60;1.50;;;15.00;99.90;;;;;;5031474;28;20448;-69
2022/07/13 01:44:16;;;;;;;1.67;1.57;;;15.00;99.90;;;;;;5031552;28;20983;-72
2022/07/13 01:46:43;;;;;;;2.03;1.80;;;15.00;99.90;;;;;;5031681;28;20969;-71
2022/07/13 01:49:10;;;;;;;1.80;1.70;;;15.00;99.90;;;;;;5030854;28;20464;-71
2022/07/13 01:51:36;;;;;;;1.63;1.53;;;14.90;99.90;;;;;;5031198;28;21010;-70
2022/07/13 01:54:03;;;;;;;1.40;1.30;;;14.90;99.90;;;;;;5031074;28;20475;-71
2022/07/13 01:56:32;;;;;;;2.47;1.67;;;14.90;99.90;;;;;;5031463;28;20456;-72
2022/07/13 01:59:00;;;;;;;1.83;1.60;;;15.00;99.90;;;;;;5030801;28;20515;-72
2022/07/13 02:01:26;;;;;;;3.33;1.90;;;15.00;99.90;;;;;;5030823;28;20952;-72
2022/07/13 02:03:53;;;;;;;2.00;1.90;;;15.00;99.90;;;;;;5031136;28;20460;-71
2022/07/13 02:06:20;;;;;;;1.97;1.63;;;15.00;99.90;;;;;;5031003;28;20487;-71
2022/07/13 02:08:47;;;;;;;1.90;1.70;;;15.00;99.90;;;;;;5030959;28;20551;-72
2022/07/13 02:11:15;;;;;;;1.90;1.80;;;15.00;99.90;;;;;;5030205;28;20484;-72
2022/07/13 02:13:43;;;;;;;1.60;1.50;;;15.10;99.90;;;;;;5031001;28;20843;-72
2022/07/13 02:16:12;;;;;;;1.60;1.50;;;15.10;99.90;;;;;;5030797;28;21013;-71
2022/07/13 02:18:39;;;;;;;3.60;1.73;;;15.10;99.90;;;;;;5030857;28;20459;-71
2022/07/13 02:21:06;;;;;;;1.53;1.40;;;15.10;99.90;;;;;;5030343;28;20483;-72
2022/07/13 02:23:33;;;;;;;1.83;1.73;;;15.00;99.90;;;;;;5031003;28;20456;-72
2022/07/13 02:26:00;;;;;;;1.70;1.60;;;15.00;99.90;;;;;;5030901;28;20496;-72
2022/07/13 02:28:26;;;;;;;1.80;1.67;;;15.00;99.90;;;;;;5030620;28;20547;-72
2022/07/13 02:30:54;;;;;;;2.50;1.80;;;15.00;99.90;;;;;;5030157;28;20847;-72
2022/07/13 02:33:22;;;;;;;3.33;2.30;;;15.00;99.90;;;;;;5030343;28;20464;-72
2022/07/13 02:35:49;;;;;;;2.17;1.63;;;15.00;99.90;;;;;;5030576;28;20476;-72
2022/07/13 02:38:16;;;;;;;1.67;1.57;;;15.00;99.90;;;;;;5030462;28;20512;-72
2022/07/13 02:40:43;;;;;;;2.00;1.40;;;14.90;99.90;;;;;;5030136;28;20452;-72
2022/07/13 02:43:10;;;;;;;3.50;1.70;;;14.90;99.90;;;;;;5030654;28;20502;-72
2022/07/13 02:45:36;;;;;;;2.90;1.93;;;14.90;99.90;;;;;;5030406;28;20542;-72
2022/07/13 02:48:04;;;;;;;2.73;2.17;;;14.90;99.90;;;;;;5030448;28;20460;-71
2022/07/13 02:50:32;;;;;;;2.53;1.63;;;14.90;99.90;;;;;;5030009;28;20487;-71
2022/07/13 02:52:58;;;;;;;1.90;1.70;;;14.90;99.90;;;;;;5030765;28;20461;-71
2022/07/13 02:55:25;;;;;;;2.53;2.33;;;14.80;99.90;;;;;;5030389;28;20903;-71
2022/07/13 02:57:52;;;;;;;2.33;1.63;;;14.80;99.90;;;;;;5030420;28;20550;-71
2022/07/13 03:00:19;;;;;;;1.77;1.67;;;14.80;99.90;;;;;;5029768;28;20465;-71
2022/07/13 03:02:46;;;;;;;1.67;1.57;;;14.70;99.90;;;;;;5030641;28;20498;-71
2022/07/13 03:05:13;;;;;;;2.70;1.63;;;14.70;99.90;;;;;;5030370;28;21058;-71
2022/07/13 03:07:41;;;;;;;2.03;1.73;;;14.70;99.90;;;;;;5030332;28;20986;-71
2022/07/13 03:10:08;;;;;;;2.03;1.83;;;14.70;99.90;;;;;;5029639;28;20483;-71
2022/07/13 03:12:35;;;;;;;1.70;1.60;;;14.60;99.90;;;;;;5030071;28;20467;-71
2022/07/13 03:15:02;;;;;;;2.60;1.80;;;14.50;99.90;;;;;;5030229;28;20487;-70
2022/07/13 03:17:29;;;;;;;2.33;1.63;;;14.50;99.90;;;;;;5030246;28;20467;-71
2022/07/13 03:19:56;;;;;;;3.93;1.90;;;14.50;99.90;;;;;;5029623;28;20474;-72
2022/07/13 03:22:22;;;;;;;1.93;1.83;;;14.50;99.90;;;;;;5030330;28;21030;-71
2022/07/13 03:24:50;;;;;;;2.93;2.60;;;14.50;99.90;;;;;;5029858;28;20850;-71
2022/07/13 03:27:17;;;;;;;1.83;1.73;;;14.40;99.90;;;;;;5030451;28;20487;-71
2022/07/13 03:29:44;;;;;;;3.20;2.07;;;14.40;99.90;;;;;;5029208;28;20460;-72
2022/07/13 03:32:11;;;;;;;1.70;1.60;;;14.40;99.90;;;;;;5017594;28;20484;-72
2022/07/13 03:34:37;;;;;;;2.60;2.23;;;14.40;99.90;;;;;;5009350;28;20481;-72
2022/07/13 03:37:04;;;;;;;2.50;2.10;;;14.40;99.90;;;;;;5009109;28;20480;-71
2022/07/13 03:39:31;;;;;;;3.43;2.13;;;14.30;99.90;;;;;;5008712;28;21150;-72
2022/07/13 03:41:59;;;;;;;2.53;1.97;;;14.30;99.90;;;;;;5009187;28;20456;-72
2022/07/13 03:44:26;;;;;;;2.40;2.20;;;14.30;99.90;;;;;;5010637;28;20588;-72
2022/07/13 03:46:53;;;;;;;2.13;1.77;;;14.30;99.90;;;;;;5013588;28;20461;-71
2022/07/13 03:49:20;;;;;;;2.87;1.83;;;14.30;99.90;;;;;;5013452;28;20465;-71
2022/07/13 03:51:48;;;;;;;2.50;2.30;;;14.30;99.90;;;;;;5013735;28;20491;-73
2022/07/13 03:54:15;;;;;;;2.10;1.97;;;14.30;99.90;;;;;;5013900;28;20461;-74
2022/07/13 03:56:41;;;;;;;1.90;1.60;;;14.30;99.90;;;;;;5013250;28;20476;-74
2022/07/13 03:59:10;;;;;;;1.83;1.70;;;14.20;99.90;;;;;;5012475;28;20467;-74
2022/07/13 04:01:37;;;;;;;2.20;1.90;;;14.20;99.90;;;;;;5011960;28;20493;-73
2022/07/13 04:04:05;;;;;;;1.93;1.80;;;14.20;99.90;;;;;;5011618;28;20477;-74
2022/07/13 04:06:32;;;;;;;2.20;2.03;;;14.20;99.90;;;;;;5013560;28;20465;-73
2022/07/13 04:08:59;;;;;;;3.07;2.30;;;14.20;99.90;;;;;;5012613;28;20851;-74
2022/07/13 04:11:26;;;;;;;2.00;1.90;;;14.20;99.90;;;;;;5012401;28;21037;-73
2022/07/13 04:13:53;;;;;;;2.10;1.90;;;14.20;99.90;;;;;;5013344;28;20461;-73
2022/07/13 04:16:21;;;;;;;1.90;1.70;;;14.20;99.90;;;;;;5013293;28;20877;-73
2022/07/13 04:18:48;;;;;;;2.97;1.87;;;14.10;99.90;;;;;;5013263;28;20468;-74
2022/07/13 04:21:15;;;;;;;2.80;1.90;;;14.20;99.90;;;;;;5012776;28;20450;-74
2022/07/13 04:23:41;;;;;;;3.43;2.07;;;14.20;99.90;;;;;;5014442;28;20485;-76
2022/07/13 04:26:08;;;;;;;2.60;2.40;;;14.20;99.90;;;;;;5013328;28;20988;-72
2022/07/13 04:28:35;;;;;;;2.00;1.80;;;14.20;99.90;;;;;;5013414;28;20476;-73
2022/07/13 04:31:02;;;;;;;2.10;1.90;;;14.20;99.90;;;;;;5090296;23;20496;-74
2022/07/13 04:33:30;;;;;;;1.90;1.70;;;14.20;99.90;;;;;;5033251;28;20460;-73
2022/07/13 04:35:57;;;;;;;1.90;1.80;;;14.30;99.90;;;;;;5032927;28;20492;-74
2022/07/13 04:38:24;;;;;;;2.83;1.80;;;14.30;99.90;;;;;;5032706;28;20452;-76
2022/07/13 04:40:50;;;;;;;1.97;1.80;;;14.40;99.90;;;;;;5032559;28;20964;-77
2022/07/13 04:43:17;;;;;;;2.27;2.07;;;14.40;99.90;;;;;;5032772;28;20468;-77
2022/07/13 04:45:44;;;;;;;2.00;1.80;;;14.40;99.90;;;;;;5032868;28;20563;-76
2022/07/13 04:48:11;;;;;;;2.90;2.20;;;14.50;99.90;;;;;;5033320;28;20967;-75
2022/07/13 04:50:39;;;;;;;2.33;2.13;;;14.50;99.90;;;;;;5032813;28;20456;-75
2022/07/13 04:53:06;;;;;;;2.23;2.03;;;14.60;99.90;;;;;;5032706;28;20452;-73
2022/07/13 04:55:32;;;;;;;2.10;1.90;;;14.60;99.90;;;;;;5032619;28;20827;-73
2022/07/13 04:57:59;;;;;;;2.80;2.10;;;14.60;99.90;;;;;;5032332;28;20979;-74
2022/07/13 05:00:26;;;;;;;2.27;2.07;;;14.70;99.90;;;;;;5031896;28;20963;-73
2022/07/13 05:02:53;;;;;;;2.30;1.90;;;14.70;99.90;;;;;;5032963;28;20457;-74
2022/07/13 05:05:21;;;;;;;2.60;2.03;;;14.80;99.90;;;;;;5028996;28;20480;-74
2022/07/13 05:07:49;;;;;;;2.30;1.90;;;14.90;99.90;;;;;;5017783;28;20844;-75
2022/07/13 05:10:16;;;;;;;2.10;1.90;;;15.00;99.90;;;;;;5011876;28;21000;-73
2022/07/13 05:12:43;;;;;;;2.10;1.90;;;15.10;99.90;;;;;;5012481;28;20489;-72
2022/07/13 05:15:11;;;;;;;2.10;1.90;;;15.20;99.90;;;;;;5012397;28;20485;-73
2022/07/13 05:17:38;;;;;;;2.70;1.77;;;15.30;99.90;;;;;;5012543;28;20471;-73
2022/07/13 05:20:06;;;;;;;2.47;2.27;;;15.30;99.90;;;;;;5011636;28;20953;-73
2022/07/13 05:22:33;;;;;;;4.40;2.23;;;15.40;99.90;;;;;;5012499;28;20461;-72
2022/07/13 05:25:01;;;;;;;2.43;2.23;;;15.50;99.90;;;;;;5012091;28;20484;-76
2022/07/13 05:27:28;;;;;;;2.80;2.53;;;15.50;99.90;;;;;;5012133;28;20945;-71
2022/07/13 05:29:55;;;;;;;5.43;2.80;;;15.60;99.90;;;;;;5011436;28;20473;-73
2022/07/13 05:32:22;;;;;;;6.07;3.00;;;15.70;99.90;;;;;;5011967;28;20489;-74
2022/07/13 05:34:49;;;;;;;3.33;2.50;;;15.80;99.90;;;;;;5012061;28;20488;-74
2022/07/13 05:37:16;;;;;;;2.80;2.10;;;16.00;99.90;;;;;;5011853;28;20499;-76
2022/07/13 05:39:44;;;;;;;5.53;2.90;;;16.00;99.90;;;;;;5012077;28;20461;-76
2022/07/13 05:42:12;;;;;;;7.40;3.47;;;16.20;99.90;;;;;;5021190;28;20453;-76
2022/07/13 05:44:39;;;;;;;4.70;2.40;;;16.30;99.90;;;;;;5022687;28;20487;-78
2022/07/13 05:47:06;;;;;;;3.20;2.77;;;16.50;99.90;;;;;;5021938;28;20464;-76
2022/07/13 05:49:33;;;;;;;3.53;2.10;;;16.60;99.90;;;;;;5021377;28;20956;-74
2022/07/13 05:52:00;;;;;;;3.80;2.10;;;16.70;99.90;;;;;;5020309;28;20511;-71
2022/07/13 05:54:30;;;;;;;2.43;2.00;;;16.90;99.90;;;;;;5021298;28;20460;-71
2022/07/13 05:56:57;;;;;;;3.53;2.10;;;17.10;99.90;;;;;;5011757;28;20519;-71
2022/07/13 05:59:25;;;;;;;2.37;1.90;;;17.20;99.90;;;;;;5010892;28;20465;-72
2022/07/13 06:01:52;;;;;;;2.27;2.07;;;17.30;99.90;;;;;;5011964;28;20457;-71
2022/07/13 06:04:19;;;;;;;3.03;1.97;;;17.40;99.90;;;;;;5011382;28;20488;-75
2022/07/13 06:06:46;;;;;;;1.80;1.70;;;17.50;99.90;;;;;;5012017;28;20473;-74
2022/07/13 06:09:13;;;;;;;3.87;2.17;;;17.60;99.90;;;;;;5010363;28;20480;-75
2022/07/13 06:11:40;;;;;;;1.87;1.67;;;17.80;99.90;;;;;;5011113;28;20485;-74
2022/07/13 06:14:07;;;;;;;2.10;1.87;;;17.90;99.90;;;;;;5011437;28;20469;-71
2022/07/13 06:16:35;;;;;;;2.77;1.73;;;18.10;99.90;;;;;;5011226;28;20461;-75
2022/07/13 06:19:02;;;;;;;2.03;1.83;;;18.30;99.90;;;;;;5011188;28;20465;-73
2022/07/13 06:21:29;;;;;;;2.10;1.57;;;18.50;99.90;;;;;;5011168;28;20556;-73
2022/07/13 06:23:55;;;;;;;1.93;1.77;;;18.60;99.90;;;;;;5011063;28;20976;-75
2022/07/13 06:26:22;;;;;;;1.70;1.60;;;18.80;99.90;;;;;;5011516;28;20481;-75
2022/07/13 06:28:49;;;;;;;2.10;1.30;;;18.90;99.90;;;;;;5011085;28;20472;-73
2022/07/13 06:31:16;;;;;;;2.13;1.20;;;19.10;99.90;;;;;;5010393;28;20473;-74
2022/07/13 06:33:44;;;;;;;1.50;1.30;;;19.20;99.90;;;;;;5010809;28;20952;-74
2022/07/13 06:36:11;;;;;;;1.93;1.27;;;19.30;99.90;;;;;;5010771;28;20536;-74
2022/07/13 06:38:38;;;;;;;2.03;1.50;;;19.40;99.90;;;;;;5010975;28;21035;-75
2022/07/13 06:41:05;;;;;;;1.57;1.47;;;19.50;99.90;;;;;;5010135;28;20984;-74
2022/07/13 06:43:31;;;;;;;1.30;1.20;;;19.60;99.90;;;;;;5011015;28;20457;-75
2022/07/13 06:45:58;;;;;;;1.43;1.33;;;19.70;99.90;;;;;;5010736;28;20488;-75
2022/07/13 06:48:25;;;;;;;2.10;1.20;;;19.80;99.90;;;;;;5010697;28;20461;-73
2022/07/13 06:50:53;;;;;;;1.50;1.23;;;19.90;99.90;;;;;;5010557;28;20465;-73
2022/07/13 06:53:20;;;;;;;1.80;1.70;;;20.00;99.90;;;;;;5010703;28;20489;-72
2022/07/13 06:55:47;;;;;;;2.07;1.77;;;20.10;99.90;;;;;;5010871;28;20485;-72
2022/07/13 06:58:13;;;;;;;1.60;1.50;;;20.20;99.90;;;;;;5010225;28;20465;-74
2022/07/13 07:00:40;;;;;;;1.40;1.30;;;20.20;99.90;;;;;;5010338;28;20461;-71
2022/07/13 07:03:07;;;;;;;3.43;1.30;;;20.30;99.90;;;;;;5010705;28;20453;-74
2022/07/13 07:05:34;;;;;;;1.70;1.60;;;20.30;99.90;;;;;;5011416;28;20477;-71
2022/07/13 07:08:02;;;;;;;1.37;1.27;;;20.40;99.90;;;;;;5011081;28;20457;-71
2022/07/13 07:10:29;;;;;;;1.20;1.10;;;20.60;99.90;;;;;;5010622;28;20461;-72
2022/07/13 07:12:56;;;;;;;1.80;1.40;;;20.70;99.90;;;;;;5010656;28;20481;-75
2022/07/13 07:15:24;;;;;;;1.50;1.30;;;20.80;99.90;;;;;;5010633;28;20993;-74
2022/07/13 07:17:51;;;;;;;1.70;1.60;;;20.90;99.90;;;;;;5011039;28;20506;-74
2022/07/13 07:20:18;;;;;;;2.10;1.37;;;20.90;99.90;;;;;;5011403;28;20468;-73
2022/07/13 07:22:46;;;;;;;3.00;1.60;;;21.10;99.90;;;;;;5014742;28;20842;-72
2022/07/13 07:25:15;;;;;;;1.80;1.47;;;21.20;99.90;;;;;;5014688;28;20516;-75
2022/07/13 07:27:42;;;;;;;1.90;1.20;;;21.40;99.90;;;;;;5014605;28;20461;-75
2022/07/13 07:30:10;;;;;;;1.83;1.20;;;21.60;99.90;;;;;;5013736;28;20479;-72
2022/07/13 07:32:38;;;;;;;2.00;1.50;;;21.80;99.90;;;;;;5014308;28;20572;-73
2022/07/13 07:35:07;;;;;;;1.70;1.60;;;22.00;99.90;;;;;;5014276;28;20543;-71
2022/07/13 07:37:34;;;;;;;1.43;1.33;;;22.10;99.90;;;;;;5014645;28;21012;-74
2022/07/13 07:40:01;;;;;;;1.43;1.30;;;22.20;99.90;;;;;;5013209;28;20465;-74
2022/07/13 07:42:30;;;;;;;1.80;1.43;;;22.40;99.90;;;;;;5014308;28;20465;-75
2022/07/13 07:44:57;;;;;;;3.43;1.60;;;22.60;99.90;;;;;;5014250;28;20488;-74
2022/07/13 07:47:25;;;;;;;2.00;1.23;;;22.80;99.90;;;;;;5014353;28;20915;-72
2022/07/13 07:49:52;;;;;;;1.30;1.20;;;22.90;99.60;;;;;;5013602;28;20461;-76
2022/07/13 07:52:19;;;;;;;1.80;1.30;;;23.00;99.60;;;;;;5014172;28;20861;-75
2022/07/13 07:54:46;;;;;;;1.30;1.20;;;23.10;99.60;;;;;;5014312;28;20571;-75
2022/07/13 07:57:13;;;;;;;2.53;1.30;;;23.10;99.60;;;;;;5014118;28;20520;-74
2022/07/13 07:59:42;;;;;;;3.77;1.20;;;23.10;99.00;;;;;;5013260;28;21012;-74
2022/07/13 08:02:09;;;;;;;2.43;1.30;;;23.10;99.90;;;;;;5013781;28;20468;-75
2022/07/13 08:04:36;;;;;;;1.53;1.27;;;23.20;99.90;;;;;;5013948;28;20480;-75
2022/07/13 08:07:02;;;;;;;1.20;1.10;;;23.40;99.90;;;;;;5013891;28;20464;-74
2022/07/13 08:09:29;;;;;;;1.13;1.03;;;23.50;99.70;;;;;;5013292;28;20461;-74
2022/07/13 08:11:56;;;;;;;2.17;1.10;;;23.60;98.80;;;;;;5013711;28;20463;-76
2022/07/13 08:14:23;;;;;;;1.20;1.10;;;23.70;99.80;;;;;;5013521;28;20550;-75
2022/07/13 08:16:51;;;;;;;1.10;1.00;;;23.70;98.90;;;;;;5013739;28;20461;-74
2022/07/13 08:19:18;;;;;;;1.23;1.13;;;23.80;98.50;;;;;;5013095;28;20484;-74
2022/07/13 08:21:45;;;;;;;1.30;1.20;;;23.80;98.30;;;;;;5013370;28;20945;-75
2022/07/13 08:24:12;;;;;;;1.57;1.23;;;23.80;97.20;;;;;;5013418;28;20461;-74
2022/07/13 08:26:38;;;;;;;1.77;1.10;;;23.90;97.70;;;;;;5013092;28;20475;-72
2022/07/13 08:29:05;;;;;;;1.23;1.13;;;23.90;96.50;;;;;;5013009;28;20984;-72
2022/07/13 08:31:32;;;;;;;1.77;1.20;;;23.80;97.40;;;;;;5012442;28;20468;-73
2022/07/13 08:39:29;;;;;;;1.70;1.10;;;23.80;96.50;;;;;;5012577;28;20487;-71
2022/07/13 08:41:59;;;;;;;1.30;1.20;;;23.80;96.70;;;;;;5013144;28;20468;-72
2022/07/13 08:44:26;;;;;;;1.67;1.40;;;23.90;96.30;;;;;;5012826;28;21056;-72
2022/07/13 08:46:53;;;;;;;1.10;1.00;;;24.00;98.00;;;;;;5013232;28;20472;-72
2022/07/13 08:49:23;;;;;;;1.40;1.30;;;24.00;97.00;;;;;;5012372;28;20457;-70
2022/07/13 08:51:52;;;;;;;2.60;1.37;;;24.20;97.30;;;;;;5013166;28;20840;-73
2022/07/13 08:54:18;;;;;;;1.23;1.13;;;24.30;99.00;;;;;;5012361;28;20578;-72
2022/07/13 08:56:45;;;;;;;2.17;1.27;;;24.40;98.70;;;;;;5012745;28;20476;-72
2022/07/13 08:59:14;;;;;;;1.60;1.27;;;24.40;98.00;;;;;;5012372;28;20469;-73
2022/07/13 09:01:40;;;;;;;1.30;1.17;;;24.50;96.20;;;;;;5012542;28;20461;-73
2022/07/13 09:04:10;;;;;;;4.07;2.83;;;24.50;97.90;;;;;;5012625;28;20453;-72
2022/07/13 09:06:47;;;;;;;1.30;1.20;;;24.60;96.60;;;;;;5012458;28;20465;-73
2022/07/13 09:09:35;;;;;;;3.10;1.30;;;24.80;96.80;;;;;;5012057;28;20471;-73
2022/07/13 09:12:16;;;;;;;2.63;1.40;;;25.00;98.30;;;;;;5012326;28;20957;-73
2022/07/13 09:14:44;;;;;;;1.30;1.20;;;25.10;97.60;;;;;;5012702;28;20850;-74
2022/07/13 09:17:31;;;;;;;2.27;1.27;;;25.20;97.00;;;;;;5012598;28;20816;-74
2022/07/13 09:20:01;;;;;;;1.47;1.30;;;25.30;97.00;;;;;;5017705;28;20499;-73
2022/07/13 09:22:29;;;;;;;1.60;1.10;;;25.50;95.80;;;;;;5030958;28;20463;-75
2022/07/13 09:24:56;;;;;;;1.40;1.30;;;25.60;94.30;;;;;;5031544;28;20571;-74
2022/07/13 09:27:23;;;;;;;1.30;1.20;;;25.50;93.10;;;;;;5031635;28;20464;-72
2022/07/13 09:29:50;;;;;;;2.30;1.20;;;25.50;93.10;;;;;;5030970;28;20475;-74
2022/07/13 09:32:17;;;;;;;1.43;1.33;;;25.40;93.90;;;;;;5031574;28;20467;-74
2022/07/13 09:34:51;;;;;;;1.27;1.17;;;25.60;94.20;;;;;;5030910;28;21062;-73
2022/07/13 09:37:20;;;;;;;1.67;1.00;;;25.80;93.40;;;;;;5031350;28;20464;-74
2022/07/13 09:39:59;;;;;;;1.30;1.20;;;26.00;95.60;;;;;;5030894;28;20466;-74
2022/07/13 09:42:26;;;;;;;1.53;0.80;;;26.10;93.20;;;;;;5030245;28;20551;-72
2022/07/13 09:47:43;;;;;;;1.90;1.20;;;26.40;92.10;;;;;;5031346;28;20456;-72
2022/07/13 09:50:10;;;;;;;2.57;1.13;;;26.40;94.00;;;;;;5030249;28;20464;-74
2022/07/13 09:52:37;;;;;;;1.37;1.27;;;26.50;95.20;;;;;;5031047;28;20495;-74
2022/07/13 09:55:10;;;;;;;1.30;1.20;;;26.60;96.60;;;;;;5030999;28;20559;-74
2022/07/13 09:57:46;;;;;;;1.10;1.00;;;26.80;94.90;;;;;;5030616;28;20464;-74
2022/07/13 10:00:17;;;;;;;1.20;1.10;;;26.90;91.30;;;;;;5030482;28;20940;-74
2022/07/13 10:02:46;;;;;;;1.40;1.20;;;27.10;93.60;;;;;;5030334;28;20467;-73
2022/07/13 10:05:15;;;;;;;1.10;1.00;;;27.20;92.90;;;;;;5030974;28;20509;-74
2022/07/13 10:07:42;;;;;;;1.40;1.30;;;27.30;92.10;;;;;;5030458;28;20464;-74
2022/07/13 10:10:12;;;;;;;3.20;1.30;;;27.40;92.20;;;;;;5029534;28;20499;-74
2022/07/13 10:12:39;;;;;;;1.37;1.10;;;27.30;92.70;;;;;;5030488;28;20467;-74
2022/07/13 10:15:07;;;;;;;1.50;1.27;;;27.40;90.10;;;;;;5030435;28;20519;-75
2022/07/13 10:17:34;;;;;;;1.40;1.00;;;27.40;93.30;;;;;;5030399;28;21089;-74
2022/07/13 10:20:06;;;;;;;1.30;1.20;;;27.50;91.20;;;;;;5029855;28;20460;-74
2022/07/13 10:22:38;;;;;;;1.90;1.50;;;27.60;85.70;;;;;;5029844;28;20465;-74
2022/07/13 10:25:06;;;;;;;1.23;1.13;;;27.60;91.10;;;;;;5030505;28;21003;-75
2022/07/13 10:27:36;;;;;;;1.57;1.30;;;27.70;91.90;;;;;;5030058;28;21055;-74
2022/07/13 10:30:06;;;;;;;1.30;1.20;;;27.80;90.60;;;;;;5030202;28;20476;-75
2022/07/13 10:32:34;;;;;;;1.10;1.00;;;27.90;91.20;;;;;;5029787;28;20631;-74
2022/07/13 10:38:11;;;;;;;2.17;1.07;;;28.00;89.30;;;;;;5033668;28;20469;-93
2022/07/13 10:40:38;;;;;;;1.73;1.10;;;28.20;88.60;;;;;;5014906;28;20452;-91
2022/07/13 10:43:16;;;;;;;1.40;1.30;;;28.30;86.20;;;;;;5015924;28;20487;-93
2022/07/13 10:45:45;;;;;;;1.90;1.10;;;28.40;90.80;;;;;;5015509;28;20488;-90
2022/07/13 10:48:48;;;;;;;2.07;1.20;;;28.60;80.80;;;;;;5019906;28;20478;-90
2022/07/13 10:51:20;;;;;;;1.17;1.07;;;28.60;80.10;;;;;;5020559;28;20462;-91
2022/07/13 10:54:06;;;;;;;1.93;1.07;;;28.60;87.50;;;;;;5022463;28;20454;-91
2022/07/13 10:56:33;;;;;;;1.33;1.00;;;28.70;83.80;;;;;;5027094;28;20484;-94
2022/07/13 10:59:02;;;;;;;1.10;0.90;;;28.90;87.70;;;;;;5040081;28;20483;-95
2022/07/13 11:01:40;;;;;;;1.10;1.00;;;29.10;87.60;;;;;;5034636;28;20467;-92
2022/07/13 11:04:09;;;;;;;1.20;1.10;;;29.20;86.70;;;;;;5025033;28;20485;-92
2022/07/13 11:06:38;;;;;;;1.00;0.90;;;29.40;85.90;;;;;;5025307;28;20913;-90
2022/07/13 11:09:13;;;;;;;1.10;1.00;;;29.40;80.70;;;;;;5025089;28;20467;-92
2022/07/13 11:11:48;;;;;;;1.40;1.00;;;29.40;78.20;;;;;;5027547;28;20465;-93
2022/07/13 11:14:55;;;;;;;2.97;1.13;;;29.30;80.50;;;;;;5032333;28;20469;-93
2022/07/13 11:17:24;;;;;;;1.77;1.10;;;29.40;76.90;;;;;;5034905;28;20464;-93
2022/07/13 11:19:59;;;;;;;1.30;1.20;;;29.40;81.10;;;;;;5027831;28;20557;-91
2022/07/13 11:25:13;;;;;;;1.40;1.00;;;29.50;85.40;;;;;;5029651;28;20483;-91
2022/07/13 11:25:45;;;;;;;1.60;1.20;;;29.60;85.10;;;;;;5042873;28;20476;-93
2022/07/13 11:28:28;;;;;;;3.13;1.00;;;29.80;76.30;;;;;;5042081;28;20555;-91
2022/07/13 11:30:55;;;;;;;1.70;1.10;;;29.70;74.60;;;;;;5041867;28;20997;-91
2022/07/13 11:33:24;;;;;;;1.00;0.90;;;29.70;77.90;;;;;;5040574;28;20458;-90
2022/07/13 11:35:51;;;;;;;0.90;0.80;;;29.70;74.10;;;;;;5041135;28;20493;-90
2022/07/13 11:38:19;;;;;;;1.20;1.10;;;29.80;80.60;;;;;;5039576;28;20466;-90
2022/07/13 11:40:47;;;;;;;1.80;1.00;;;29.80;81.50;;;;;;5038723;28;20452;-91
2022/07/13 11:43:14;;;;;;;3.40;1.33;;;29.90;81.00;;;;;;5041275;28;20484;-90
2022/07/13 11:45:43;;;;;;;1.20;1.00;;;30.00;81.40;;;;;;5043168;28;20490;-91
2022/07/13 11:48:13;;;;;;;1.67;1.10;;;30.00;80.50;;;;;;5040821;28;20472;-90
2022/07/13 11:50:50;;;;;;;1.00;0.90;;;30.10;77.60;;;;;;5039820;28;20462;-90
2022/07/13 11:53:27;;;;;;;1.40;1.03;;;30.30;81.60;;;;;;5039975;28;20461;-91
2022/07/13 11:55:57;;;;;;;1.97;1.23;;;30.40;72.80;;;;;;5039212;28;20918;-92
2022/07/13 11:58:31;;;;;;;1.17;1.07;;;30.50;77.30;;;;;;5039921;28;20470;-90
2022/07/13 12:00:58;;;;;;;1.10;1.00;;;30.60;79.40;;;;;;5040287;28;20474;-90
2022/07/13 12:03:33;;;;;;;1.23;1.10;;;30.50;76.80;;;;;;5038435;28;20485;-91
2022/07/13 12:06:04;;;;;;;1.27;1.13;;;30.40;78.90;;;;;;5036714;28;21023;-91
2022/07/13 12:08:33;;;;;;;1.27;1.00;;;30.30;76.30;;;;;;5036070;28;20459;-90
2022/07/13 12:11:00;;;;;;;1.03;0.90;;;30.20;79.00;;;;;;5034866;28;20531;-92
2022/07/13 12:13:36;;;;;;;2.03;1.00;;;30.40;75.10;;;;;;5036150;28;20460;-91
2022/07/13 12:16:03;;;;;;;1.07;0.90;;;30.40;72.30;;;;;;5042517;28;20512;-92
2022/07/13 12:18:30;;;;;;;1.60;1.10;;;30.10;71.30;;;;;;5052399;28;20519;-91
2022/07/13 12:20:58;;;;;;;1.10;0.90;;;29.90;73.30;;;;;;5050330;28;20463;-91
2022/07/13 12:23:31;;;;;;;0.90;0.80;;;29.70;73.20;;;;;;5041244;28;20486;-91
2022/07/13 12:26:06;;;;;;;1.00;0.80;;;29.60;74.10;;;;;;5039903;28;21010;-93
2022/07/13 12:28:33;;;;;;;2.40;1.20;;;29.50;74.60;;;;;;5039471;28;20464;-91
2022/07/13 12:31:01;;;;;;;1.20;1.03;;;29.50;76.60;;;;;;5036821;28;20954;-90
2022/07/13 12:33:42;;;;;;;1.27;0.90;;;29.50;81.90;;;;;;5034390;28;20453;-90
2022/07/13 12:36:10;;;;;;;1.63;1.20;;;29.60;77.90;;;;;;5035692;28;20982;-91
2022/07/13 12:38:53;;;;;;;1.60;1.30;;;29.60;79.10;;;;;;5039598;28;20467;-90
2022/07/13 12:41:26;;;;;;;2.20;2.00;;;29.60;79.00;;;;;;5034638;28;20521;-90
2022/07/13 12:43:56;;;;;;;1.37;1.00;;;29.70;80.00;;;;;;5035212;28;20881;-90
2022/07/13 12:46:24;;;;;;;1.10;1.00;;;30.00;80.30;;;;;;5039048;28;20478;-91
2022/07/13 12:48:59;;;;;;;1.20;0.90;;;30.30;79.30;;;;;;5058223;28;20456;-93
2022/07/13 12:51:45;;;;;;;1.53;1.10;;;30.60;80.00;;;;;;5058280;28;20477;-92
2022/07/13 12:54:13;;;;;;;1.30;1.20;;;30.90;78.70;;;;;;5033665;28;20446;-90
2022/07/13 12:56:51;;;;;;;1.40;0.90;;;31.00;76.90;;;;;;5020236;28;20475;-91
2022/07/13 12:59:20;;;;;;;1.90;1.10;;;31.10;76.30;;;;;;5033353;28;20448;-94
2022/07/13 13:01:48;;;;;;;1.50;1.20;;;31.10;75.10;;;;;;5038687;28;20543;-94
2022/07/13 13:04:17;;;;;;;1.70;1.20;;;30.90;76.30;;;;;;5038633;28;20486;-94
2022/07/13 13:06:46;;;;;;;1.13;0.80;;;31.00;79.00;;;;;;5038500;28;20465;-94